createdAt,value
2023-04-03T00:00:25.715Z,36.09
2023-04-03T00:01:29.368Z,36.08
2023-04-03T00:02:33.539Z,36.09
2023-04-03T00:03:38.140Z,36.08
2023-04-03T00:04:42.068Z,36.20
2023-04-03T00:05:45.942Z,36.23
2023-04-03T00:06:49.603Z,36.23
2023-04-03T00:07:53.243Z,36.24
2023-04-03T00:08:58.511Z,36.32
2023-04-03T00:10:02.162Z,36.22
2023-04-03T00:11:06.618Z,36.34
2023-04-03T00:12:10.210Z,36.40
2023-04-03T00:13:14.544Z,36.45
2023-04-03T00:14:18.171Z,36.38
2023-04-03T00:15:21.899Z,36.33
2023-04-03T00:16:25.625Z,36.31
2023-04-03T00:17:29.295Z,36.43
2023-04-03T00:18:33.101Z,36.43
2023-04-03T00:19:36.770Z,36.45
2023-04-03T00:20:40.568Z,36.44
2023-04-03T00:21:44.185Z,36.48
2023-04-03T00:22:48.037Z,36.46
2023-04-03T00:23:51.686Z,36.50
2023-04-03T00:24:57.021Z,36.55
2023-04-03T00:26:00.686Z,36.36
2023-04-03T00:27:04.291Z,36.58
2023-04-03T00:28:07.999Z,36.49
2023-04-03T00:29:11.759Z,36.59
2023-04-03T00:30:17.240Z,36.60
2023-04-03T00:31:20.930Z,36.62
2023-04-03T00:32:24.622Z,36.56
2023-04-03T00:33:28.282Z,36.49
2023-04-03T00:34:32.081Z,36.59
2023-04-03T00:35:36.775Z,36.62
2023-04-03T00:36:40.570Z,36.56
2023-04-03T00:37:44.276Z,36.68
2023-04-03T00:38:47.903Z,36.69
2023-04-03T00:39:51.605Z,36.65
2023-04-03T00:40:56.917Z,36.68
2023-04-03T00:42:00.742Z,36.78
2023-04-03T00:43:12.859Z,36.83
2023-04-03T00:44:24.985Z,36.72
2023-04-03T00:45:35.412Z,36.64
2023-04-03T00:46:39.096Z,36.82
2023-04-03T00:47:43.760Z,36.89
2023-04-03T00:48:49.065Z,36.82
2023-04-03T00:49:53.970Z,36.79
2023-04-03T00:50:58.294Z,36.92
2023-04-03T00:52:02.360Z,37.01
2023-04-03T00:53:07.048Z,36.94
2023-04-03T00:54:10.883Z,37.09
2023-04-03T00:55:15.171Z,37.08
2023-04-03T00:56:24.599Z,36.98
2023-04-03T00:57:29.663Z,37.02
2023-04-03T00:58:39.037Z,37.02
2023-04-03T00:59:48.263Z,37.03
2023-04-03T01:00:57.423Z,37.00
2023-04-03T01:02:01.683Z,37.00
2023-04-03T01:03:05.532Z,37.03
2023-04-03T01:04:29.495Z,37.09
2023-04-03T01:05:37.010Z,37.02
2023-04-03T01:06:40.892Z,37.04
2023-04-03T01:07:45.319Z,37.02
2023-04-03T01:08:51.767Z,36.99
2023-04-03T01:09:58.388Z,36.95
2023-04-03T01:11:01.982Z,36.94
2023-04-03T01:12:22.748Z,36.96
2023-04-03T01:13:28.631Z,36.91
2023-04-03T01:14:32.229Z,37.01
2023-04-03T01:15:35.868Z,36.93
2023-04-03T01:16:39.544Z,36.86
2023-04-03T01:17:45.290Z,36.93
2023-04-03T01:18:49.374Z,36.99
2023-04-03T01:20:16.606Z,37.02
2023-04-03T01:21:51.093Z,37.11
2023-04-03T01:23:01.188Z,37.08
2023-04-03T01:24:18.396Z,37.02
2023-04-03T01:25:22.069Z,37.00
2023-04-03T01:26:26.409Z,37.06
2023-04-03T01:27:31.713Z,37.08
2023-04-03T01:28:37.565Z,37.08
2023-04-03T01:29:42.938Z,37.07
2023-04-03T01:30:52.238Z,37.07
2023-04-03T01:31:59.343Z,37.02
2023-04-03T01:33:03.025Z,37.02
2023-04-03T01:34:06.660Z,37.00
2023-04-03T01:35:12.165Z,37.00
2023-04-03T01:36:19.201Z,37.03
2023-04-03T01:37:22.810Z,37.03
2023-04-03T01:38:26.592Z,37.03
2023-04-03T01:39:30.268Z,37.02
2023-04-03T01:40:34.120Z,37.08
2023-04-03T01:41:37.928Z,37.14
2023-04-03T01:42:41.587Z,37.15
2023-04-03T01:43:45.570Z,37.26
2023-04-03T01:44:49.213Z,37.29
2023-04-03T01:45:52.855Z,37.36
2023-04-03T01:46:58.162Z,37.39
2023-04-03T01:48:01.777Z,37.49
2023-04-03T01:49:05.479Z,37.58
2023-04-03T01:50:09.556Z,37.61
2023-04-03T01:51:13.552Z,37.65
2023-04-03T01:52:17.212Z,37.70
2023-04-03T01:53:20.797Z,37.74
2023-04-03T01:54:24.376Z,37.75
2023-04-03T01:55:28.117Z,37.73
2023-04-03T01:56:31.815Z,37.66
2023-04-03T01:57:35.444Z,37.59
2023-04-03T01:58:39.164Z,37.55
2023-04-03T01:59:42.868Z,37.52
2023-04-03T02:00:46.551Z,37.51
2023-04-03T02:01:50.221Z,37.41
2023-04-03T02:02:55.704Z,37.42
2023-04-03T02:03:59.333Z,37.36
2023-04-03T02:05:03.117Z,37.45
2023-04-03T02:06:07.457Z,37.51
2023-04-03T02:07:11.174Z,37.31
2023-04-03T02:08:14.997Z,37.65
2023-04-03T02:09:18.657Z,37.60
2023-04-03T02:10:22.317Z,37.64
2023-04-03T02:11:25.935Z,37.72
2023-04-03T02:12:29.602Z,37.63
2023-04-03T02:13:33.309Z,37.66
2023-04-03T02:14:36.939Z,37.80
2023-04-03T02:15:40.835Z,37.78
2023-04-03T02:16:44.503Z,37.84
2023-04-03T02:17:48.192Z,37.93
2023-04-03T02:18:53.471Z,37.94
2023-04-03T02:19:57.097Z,37.98
2023-04-03T02:21:00.781Z,38.00
2023-04-03T02:22:04.623Z,38.01
2023-04-03T02:23:08.436Z,38.01
2023-04-03T02:24:12.040Z,37.95
2023-04-03T02:25:15.918Z,37.97
2023-04-03T02:26:19.567Z,38.05
2023-04-03T02:52:37.642Z,38.42
2023-04-03T02:53:41.293Z,38.37
2023-04-03T02:54:44.917Z,38.43
2023-04-03T02:55:49.058Z,38.39
2023-04-03T02:56:52.792Z,38.42
2023-04-03T02:57:56.483Z,38.42
2023-04-03T02:59:00.110Z,38.53
2023-04-03T03:00:03.851Z,38.50
2023-04-03T03:01:07.512Z,38.56
2023-04-03T03:02:11.725Z,38.57
2023-04-03T03:03:15.350Z,38.56
2023-04-03T03:04:18.955Z,38.60
2023-04-03T03:05:22.599Z,38.56
2023-04-03T03:06:26.250Z,38.54
2023-04-03T03:07:29.901Z,38.50
2023-04-03T03:08:35.597Z,38.48
2023-04-03T03:09:39.255Z,38.49
2023-04-03T03:10:42.972Z,38.58
2023-04-03T03:11:46.696Z,38.52
2023-04-03T03:12:50.515Z,38.61
2023-04-03T03:13:54.340Z,38.65
2023-04-03T03:14:57.958Z,38.66
2023-04-03T03:16:01.923Z,38.68
2023-04-03T03:17:05.613Z,38.71
2023-04-03T03:18:09.303Z,38.65
2023-04-03T03:19:13.019Z,38.75
2023-04-03T03:20:16.751Z,38.78
2023-04-03T03:21:20.429Z,38.81
2023-04-03T03:22:24.011Z,38.84
2023-04-03T03:23:29.192Z,38.82
2023-04-03T03:24:34.484Z,38.79
2023-04-03T03:25:40.951Z,38.80
2023-04-03T03:26:45.347Z,38.56
2023-04-03T03:27:49.018Z,38.81
2023-04-03T03:28:52.789Z,38.88
2023-04-03T03:29:56.375Z,38.88
2023-04-03T03:31:00.570Z,38.92
2023-04-03T03:32:04.254Z,38.92
2023-04-03T03:33:07.952Z,38.88
2023-04-03T03:34:11.538Z,38.92
2023-04-03T03:35:15.340Z,38.88
2023-04-03T03:36:19.105Z,38.79
2023-04-03T03:37:22.729Z,38.81
2023-04-03T03:38:26.797Z,38.86
2023-04-03T03:39:30.588Z,38.88
2023-04-03T03:40:35.927Z,38.95
2023-04-03T03:41:39.522Z,38.98
2023-04-03T03:42:43.146Z,39.04
2023-04-03T03:43:46.773Z,39.11
2023-04-03T03:44:50.382Z,39.14
2023-04-03T03:45:54.595Z,39.14
2023-04-03T03:46:58.508Z,38.92
2023-04-03T03:48:02.795Z,38.88
2023-04-03T03:49:09.730Z,39.14
2023-04-03T03:50:13.345Z,39.15
2023-04-03T03:51:17.297Z,39.01
2023-04-03T03:52:20.949Z,39.12
2023-04-03T03:53:24.612Z,39.15
2023-04-03T03:54:28.229Z,39.15
2023-04-03T03:55:31.889Z,39.10
2023-04-03T03:56:37.191Z,39.18
2023-04-03T03:57:40.951Z,39.12
2023-04-03T03:58:44.613Z,39.22
2023-04-03T03:59:48.265Z,39.25
2023-04-03T04:00:51.866Z,39.27
2023-04-03T04:01:55.735Z,39.29
2023-04-03T04:02:59.698Z,39.33
2023-04-03T04:04:06.254Z,39.35
2023-04-03T04:05:10.138Z,39.39
2023-04-03T04:06:13.782Z,39.41
2023-04-03T04:07:17.458Z,39.40
2023-04-03T04:08:21.097Z,39.46
2023-04-03T04:09:24.739Z,39.47
2023-04-03T04:10:28.459Z,39.51
2023-04-03T04:11:32.122Z,39.50
2023-04-03T04:12:37.516Z,39.53
2023-04-03T04:13:41.639Z,39.52
2023-04-03T04:14:45.330Z,39.48
2023-04-03T04:15:48.979Z,39.47
2023-04-03T04:16:52.631Z,39.58
2023-04-03T04:17:56.383Z,39.62
2023-04-03T04:19:00.031Z,39.70
2023-04-03T04:20:03.886Z,39.75
2023-04-03T04:21:07.556Z,39.77
2023-04-03T04:22:11.220Z,39.81
2023-04-03T04:23:14.919Z,39.78
2023-04-03T04:24:18.516Z,39.83
2023-04-03T04:25:22.171Z,39.85
2023-04-03T04:26:25.773Z,39.80
2023-04-03T04:27:29.381Z,39.71
2023-04-03T04:28:34.891Z,39.88
2023-04-03T04:29:38.551Z,39.89
2023-04-03T04:30:42.560Z,39.93
2023-04-03T04:31:46.190Z,39.90
2023-04-03T04:32:49.841Z,39.96
2023-04-03T04:33:53.620Z,39.78
2023-04-03T04:34:57.363Z,39.84
2023-04-03T04:36:01.181Z,39.90
2023-04-03T04:37:04.977Z,39.93
2023-04-03T04:38:08.663Z,39.95
2023-04-03T04:39:12.319Z,39.98
2023-04-03T04:40:16.284Z,40.00
2023-04-03T04:41:19.949Z,39.89
2023-04-03T04:42:23.641Z,39.96
2023-04-03T04:43:27.363Z,39.92
2023-04-03T04:44:32.682Z,40.03
2023-04-03T04:45:36.649Z,40.03
2023-04-03T04:46:40.480Z,40.15
2023-04-03T04:47:44.264Z,40.18
2023-04-03T04:48:50.482Z,40.06
2023-04-03T04:49:54.107Z,40.28
2023-04-03T04:50:57.850Z,40.30
2023-04-03T04:52:01.530Z,40.31
2023-04-03T04:53:05.282Z,40.30
2023-04-03T04:54:09.022Z,40.26
2023-04-03T04:55:12.609Z,40.32
2023-04-03T04:56:16.343Z,40.30
2023-04-03T04:57:19.971Z,40.36
2023-04-03T04:58:23.658Z,40.38
2023-04-03T04:59:27.462Z,40.32
2023-04-03T05:00:32.878Z,40.36
2023-04-03T05:01:36.654Z,40.46
2023-04-03T05:02:40.435Z,40.18
2023-04-03T05:03:44.059Z,40.46
2023-04-03T05:04:47.827Z,40.48
2023-04-03T05:05:51.532Z,40.50
2023-04-03T05:06:55.241Z,40.56
2023-04-03T05:07:58.938Z,40.63
2023-04-03T05:09:03.247Z,40.67
2023-04-03T05:10:08.112Z,40.72
2023-04-03T05:11:11.724Z,40.70
2023-04-03T05:12:15.336Z,40.75
2023-04-03T05:13:18.946Z,40.74
2023-04-03T05:14:22.656Z,40.73
2023-04-03T05:15:26.372Z,40.83
2023-04-03T05:16:31.713Z,40.81
2023-04-03T05:17:35.723Z,40.80
2023-04-03T05:18:39.379Z,40.80
2023-04-03T05:19:43.043Z,40.81
2023-04-03T05:20:46.765Z,40.80
2023-04-03T05:21:50.594Z,40.66
2023-04-03T05:22:54.255Z,40.77
2023-04-03T05:23:57.969Z,40.79
2023-04-03T05:25:01.642Z,40.83
2023-04-03T05:26:05.682Z,40.87
2023-04-03T05:27:09.316Z,40.83
2023-04-03T05:28:13.285Z,40.88
2023-04-03T05:29:16.939Z,40.88
2023-04-03T05:30:20.768Z,40.95
2023-04-03T05:31:24.613Z,40.85
2023-04-03T05:32:30.134Z,41.01
2023-04-03T05:33:33.759Z,40.85
2023-04-03T05:34:37.484Z,40.98
2023-04-03T05:35:41.276Z,40.99
2023-04-03T05:36:45.016Z,41.11
2023-04-03T05:37:48.806Z,41.24
2023-04-03T05:38:52.752Z,41.33
2023-04-03T05:39:56.639Z,41.33
2023-04-03T05:41:00.365Z,41.33
2023-04-03T05:42:03.937Z,41.29
2023-04-03T05:43:07.583Z,41.33
2023-04-03T05:44:11.779Z,41.23
2023-04-03T05:45:15.489Z,41.29
2023-04-03T05:46:20.898Z,41.10
2023-04-03T05:47:24.682Z,41.31
2023-04-03T05:48:30.079Z,41.32
2023-04-03T05:49:34.073Z,41.27
2023-04-03T05:50:37.761Z,41.30
2023-04-03T05:51:42.356Z,41.31
2023-04-03T05:52:50.164Z,41.32
2023-04-03T05:53:58.662Z,41.27
2023-04-03T05:55:02.506Z,41.01
2023-04-03T05:56:06.591Z,40.90
2023-04-03T05:57:10.313Z,40.82
2023-04-03T05:58:14.056Z,41.17
2023-04-03T05:59:17.996Z,41.29
2023-04-03T06:00:22.415Z,41.13
2023-04-03T06:01:26.048Z,41.38
2023-04-03T06:02:29.758Z,41.50
2023-04-03T06:03:36.527Z,41.27
2023-04-03T06:04:42.483Z,41.53
2023-04-03T06:05:46.163Z,41.65
2023-04-03T06:06:51.544Z,41.68
2023-04-03T06:07:55.227Z,41.08
2023-04-03T06:08:59.220Z,40.94
2023-04-03T06:10:03.494Z,41.03
2023-04-03T06:11:07.234Z,41.00
2023-04-03T06:12:11.498Z,40.67
2023-04-03T06:13:15.198Z,41.07
2023-04-03T06:14:18.884Z,41.42
2023-04-03T06:15:22.901Z,41.52
2023-04-03T06:16:26.649Z,41.50
2023-04-03T06:18:48.983Z,41.62
2023-04-03T06:19:52.590Z,41.50
2023-04-03T06:20:56.353Z,41.60
2023-04-03T06:22:00.334Z,41.56
2023-04-03T06:23:04.186Z,41.65
2023-04-03T06:24:08.659Z,41.42
2023-04-03T06:25:15.487Z,41.01
2023-04-03T06:26:19.351Z,41.43
2023-04-03T06:27:23.484Z,41.23
2023-04-03T06:28:27.443Z,41.25
2023-04-03T06:29:31.877Z,41.31
2023-04-03T06:30:35.635Z,41.06
2023-04-03T06:31:39.595Z,41.17
2023-04-03T06:32:43.289Z,41.37
2023-04-03T06:33:48.576Z,41.57
2023-04-03T06:34:52.239Z,41.66
2023-04-03T06:35:59.826Z,41.74
2023-04-03T06:37:03.849Z,41.70
2023-04-03T06:38:07.720Z,41.79
2023-04-03T06:39:15.199Z,41.78
2023-04-03T06:40:22.639Z,41.80
2023-04-03T06:41:26.633Z,41.50
2023-04-03T06:42:30.867Z,41.38
2023-04-03T06:43:35.022Z,41.42
2023-04-03T06:44:38.759Z,41.60
2023-04-03T06:45:42.428Z,41.72
2023-04-03T06:46:47.642Z,41.64
2023-04-03T06:47:51.451Z,41.27
2023-04-03T06:48:57.459Z,41.64
2023-04-03T06:50:01.220Z,41.57
2023-04-03T06:51:04.985Z,41.58
2023-04-03T06:52:12.265Z,41.54
2023-04-03T06:53:16.457Z,41.35
2023-04-03T06:54:22.858Z,41.54
2023-04-03T06:55:26.674Z,41.73
2023-04-03T06:56:30.744Z,41.84
2023-04-03T06:57:34.838Z,41.55
2023-04-03T06:58:38.526Z,41.64
2023-04-03T06:59:42.242Z,41.74
2023-04-03T07:00:45.906Z,41.54
2023-04-03T07:01:49.672Z,41.61
2023-04-03T07:02:53.572Z,41.57
2023-04-03T07:03:59.237Z,41.67
2023-04-03T07:05:02.855Z,41.83
2023-04-03T07:06:07.104Z,41.95
2023-04-03T07:07:10.788Z,41.78
2023-04-03T07:08:14.508Z,41.64
2023-04-03T07:09:18.180Z,41.57
2023-04-03T07:10:21.905Z,41.69
2023-04-03T07:11:25.592Z,41.73
2023-04-03T07:12:29.233Z,41.51
2023-04-03T07:13:33.005Z,41.80
2023-04-03T07:14:36.673Z,41.75
2023-04-03T07:15:40.527Z,41.93
2023-04-03T07:16:44.272Z,41.95
2023-04-03T07:17:47.971Z,41.92
2023-04-03T07:18:51.749Z,41.35
2023-04-03T07:19:56.983Z,41.65
2023-04-03T07:21:00.743Z,41.58
2023-04-03T07:22:04.358Z,41.67
2023-04-03T07:23:08.050Z,41.65
2023-04-03T07:24:15.070Z,41.72
2023-04-03T07:25:20.310Z,41.89
2023-04-03T07:26:24.275Z,41.91
2023-04-03T07:27:28.047Z,41.93
2023-04-03T07:28:31.725Z,41.99
2023-04-03T07:29:35.318Z,42.12
2023-04-03T07:30:45.458Z,42.08
2023-04-03T07:31:49.111Z,41.98
2023-04-03T07:32:52.803Z,41.60
2023-04-03T07:33:56.604Z,41.67
2023-04-03T07:35:02.586Z,41.61
2023-04-03T07:36:07.740Z,41.74
2023-04-03T07:37:11.856Z,41.98
2023-04-03T07:38:15.428Z,42.07
2023-04-03T07:39:19.191Z,41.73
2023-04-03T07:40:22.819Z,42.04
2023-04-03T07:41:26.626Z,42.09
2023-04-03T07:42:30.252Z,42.20
2023-04-03T07:43:34.123Z,42.23
2023-04-03T07:44:37.795Z,42.30
2023-04-03T07:45:41.515Z,42.23
2023-04-03T07:46:45.152Z,42.28
2023-04-03T07:47:49.294Z,42.35
2023-04-03T07:48:53.017Z,42.36
2023-04-03T07:49:56.809Z,41.78
2023-04-03T07:51:04.196Z,42.11
2023-04-03T07:52:08.436Z,42.27
2023-04-03T07:53:12.621Z,42.14
2023-04-03T07:54:16.301Z,42.28
2023-04-03T07:55:20.137Z,42.38
2023-04-03T07:56:23.879Z,42.34
2023-04-03T07:57:27.551Z,42.38
2023-04-03T07:58:31.931Z,42.12
2023-04-03T07:59:42.969Z,41.91
2023-04-03T08:00:53.044Z,41.88
2023-04-03T08:02:00.691Z,42.22
2023-04-03T08:03:04.650Z,41.31
2023-04-03T08:04:08.738Z,41.81
2023-04-03T08:05:12.725Z,41.99
2023-04-03T08:06:21.676Z,42.10
2023-04-03T08:07:30.048Z,42.07
2023-04-03T08:08:33.727Z,41.98
2023-04-03T08:09:37.536Z,42.13
2023-04-03T08:10:41.512Z,42.22
2023-04-03T08:11:45.403Z,42.31
2023-04-03T08:12:49.844Z,42.19
2023-04-03T08:13:53.670Z,42.32
2023-04-03T08:14:57.634Z,42.36
2023-04-03T08:16:10.287Z,42.39
2023-04-03T08:17:14.036Z,42.44
2023-04-03T08:18:17.977Z,42.49
2023-04-03T08:20:30.954Z,41.91
2023-04-03T08:21:36.498Z,42.23
2023-04-03T08:22:40.319Z,42.38
2023-04-03T08:23:44.243Z,42.24
2023-04-03T08:24:58.418Z,42.29
2023-04-03T08:26:08.938Z,42.04
2023-04-03T08:27:12.918Z,42.25
2023-04-03T08:28:16.641Z,42.25
2023-04-03T08:29:20.328Z,42.10
2023-04-03T08:30:24.008Z,42.19
2023-04-03T08:31:27.882Z,42.25
2023-04-03T08:32:31.866Z,42.28
2023-04-03T08:33:36.208Z,42.11
2023-04-03T08:34:40.111Z,42.16
2023-04-03T08:35:44.817Z,42.16
2023-04-03T08:36:50.294Z,42.19
2023-04-03T08:37:53.933Z,42.04
2023-04-03T08:38:58.634Z,42.34
2023-04-03T08:40:02.323Z,42.01
2023-04-03T08:41:13.945Z,41.80
2023-04-03T08:42:23.044Z,42.07
2023-04-03T08:43:36.656Z,41.78
2023-04-03T08:44:48.115Z,41.88
2023-04-03T08:45:54.524Z,41.96
2023-04-03T08:47:19.944Z,42.10
2023-04-03T08:48:28.910Z,42.26
2023-04-03T08:49:35.327Z,42.20
2023-04-03T08:50:43.091Z,42.19
2023-04-03T08:51:51.119Z,42.21
2023-04-03T08:52:57.620Z,42.20
2023-04-03T08:54:06.162Z,41.90
2023-04-03T08:55:21.625Z,42.10
2023-04-03T08:56:27.208Z,42.15
2023-04-03T08:57:33.306Z,41.79
2023-04-03T08:58:47.505Z,42.19
2023-04-03T08:59:51.408Z,42.21
2023-04-03T09:01:00.196Z,42.12
2023-04-03T09:02:15.580Z,42.13
2023-04-03T09:03:20.887Z,42.25
2023-04-03T09:04:24.920Z,42.30
2023-04-03T09:05:41.213Z,42.41
2023-04-03T09:06:47.724Z,42.44
2023-04-03T09:08:01.441Z,42.40
2023-04-03T09:09:15.479Z,42.24
2023-04-03T09:10:25.831Z,42.31
2023-04-03T09:11:38.438Z,42.09
2023-04-03T09:12:46.920Z,42.40
2023-04-03T09:13:56.253Z,42.46
2023-04-03T09:15:07.466Z,42.49
2023-04-03T09:16:30.142Z,42.52
2023-04-03T09:17:44.145Z,42.50
2023-04-03T09:18:50.610Z,42.08
2023-04-03T09:20:00.125Z,41.74
2023-04-03T09:21:11.985Z,41.96
2023-04-03T09:22:20.469Z,41.94
2023-04-03T09:23:30.419Z,42.00
2023-04-03T09:24:34.935Z,42.13
2023-04-03T09:25:40.440Z,42.24
2023-04-03T09:26:48.099Z,41.77
2023-04-03T09:27:52.016Z,42.11
2023-04-03T09:28:58.786Z,41.94
2023-04-03T09:30:02.502Z,41.31
2023-04-03T09:31:20.553Z,41.40
2023-04-03T09:32:29.204Z,41.46
2023-04-03T09:33:33.006Z,41.65
2023-04-03T09:34:39.012Z,41.74
2023-04-03T09:35:48.541Z,41.77
2023-04-03T09:36:54.487Z,41.71
2023-04-03T09:38:01.810Z,41.85
2023-04-03T09:39:11.773Z,41.80
2023-04-03T09:40:37.340Z,42.00
2023-04-03T09:41:41.248Z,41.97
2023-04-03T09:42:48.920Z,41.92
2023-04-03T09:43:56.551Z,41.30
2023-04-03T09:45:01.815Z,41.55
2023-04-03T09:46:30.081Z,41.78
2023-04-03T09:47:35.128Z,41.83
2023-04-03T09:48:38.907Z,41.85
2023-04-03T09:49:42.930Z,41.82
2023-04-03T09:51:01.130Z,41.82
2023-04-03T09:52:21.427Z,41.89
2023-04-03T09:53:30.976Z,41.69
2023-04-03T09:54:39.041Z,41.79
2023-04-03T09:55:45.703Z,41.61
2023-04-03T09:56:53.323Z,41.67
2023-04-03T09:57:59.159Z,41.67
2023-04-03T09:59:20.844Z,41.63
2023-04-03T10:00:26.994Z,41.31
2023-04-03T10:01:32.539Z,41.11
2023-04-03T10:02:40.602Z,41.10
2023-04-03T10:03:44.459Z,41.03
2023-04-03T10:04:53.009Z,40.76
2023-04-03T10:06:03.953Z,41.01
2023-04-03T10:07:32.330Z,41.00
2023-04-03T10:08:36.901Z,40.89
2023-04-03T10:09:42.236Z,41.09
2023-04-03T10:10:47.871Z,41.14
2023-04-03T10:12:12.834Z,40.97
2023-04-03T10:13:21.041Z,41.07
2023-04-03T10:14:25.144Z,41.02
2023-04-03T10:15:30.224Z,40.86
2023-04-03T10:16:43.508Z,40.65
2023-04-03T10:18:06.530Z,40.63
2023-04-03T10:19:36.347Z,40.58
2023-04-03T10:20:45.432Z,40.56
2023-04-03T10:21:55.232Z,40.63
2023-04-03T10:23:08.477Z,40.59
2023-04-03T10:24:16.093Z,40.44
2023-04-03T10:25:31.345Z,40.51
2023-04-03T10:26:43.949Z,40.48
2023-04-03T10:27:55.711Z,40.39
2023-04-03T10:29:10.103Z,40.41
2023-04-03T10:30:30.276Z,40.47
2023-04-03T10:31:44.405Z,40.48
2023-04-03T10:32:59.745Z,40.40
2023-04-03T10:34:07.182Z,40.31
2023-04-03T10:35:20.105Z,40.32
2023-04-03T10:36:35.893Z,40.19
2023-04-03T10:37:52.639Z,40.34
2023-04-03T10:39:08.571Z,40.17
2023-04-03T10:40:24.941Z,40.28
2023-04-03T10:41:36.270Z,40.29
2023-04-03T10:42:48.212Z,40.07
2023-04-03T10:44:03.739Z,40.18
2023-04-03T10:45:22.778Z,40.01
2023-04-03T10:46:35.924Z,40.17
2023-04-03T10:47:47.934Z,40.17
2023-04-03T10:49:05.609Z,40.13
2023-04-03T10:50:28.353Z,40.18
2023-04-03T10:51:39.417Z,40.18
2023-04-03T10:52:49.940Z,40.12
2023-04-03T10:54:01.984Z,40.08
2023-04-03T10:55:18.868Z,40.06
2023-04-03T10:56:38.888Z,40.10
2023-04-03T10:57:43.002Z,40.06
2023-04-03T10:58:50.315Z,40.13
